createdAt,value
2019-05-20T00:00:00.856Z,1.10
2019-05-20T00:01:00.831Z,1.30
2019-05-20T00:02:00.830Z,1.00
2019-05-20T00:03:00.815Z,1.00
2019-05-20T00:04:00.804Z,1.20
2019-05-20T00:05:00.797Z,1.10
2019-05-20T00:06:00.849Z,0.90
2019-05-20T00:07:00.781Z,1.10
2019-05-20T00:08:00.768Z,1.00
2019-05-20T00:09:00.745Z,1.10
2019-05-20T00:10:00.729Z,1.30
2019-05-20T00:11:00.746Z,1.10
2019-05-20T00:12:00.720Z,1.20
2019-05-20T00:13:00.696Z,1.20
2019-05-20T00:14:00.691Z,1.10
2019-05-20T00:15:00.684Z,1.20
2019-05-20T00:16:00.692Z,1.20
2019-05-20T00:17:00.675Z,0.90
2019-05-20T00:18:00.669Z,1.20
2019-05-20T00:19:00.654Z,1.30
2019-05-20T00:20:00.647Z,1.20
2019-05-20T00:21:00.615Z,1.30
2019-05-20T00:22:00.620Z,1.10
2019-05-20T00:23:00.592Z,1.10
2019-05-20T00:24:00.594Z,1.20
2019-05-20T00:25:00.581Z,1.10
2019-05-20T00:26:00.565Z,1.10
2019-05-20T00:27:00.564Z,1.10
2019-05-20T00:28:00.553Z,1.10
2019-05-20T00:29:00.528Z,1.00
2019-05-20T00:30:00.526Z,1.10
2019-05-20T00:31:00.508Z,1.10
2019-05-20T00:32:00.516Z,1.10
2019-05-20T00:33:00.503Z,1.20
2019-05-20T00:34:00.474Z,1.10
2019-05-20T00:35:00.462Z,1.20
2019-05-20T00:36:00.459Z,1.10
2019-05-20T00:37:00.469Z,1.20
2019-05-20T00:38:00.444Z,1.30
2019-05-20T00:39:00.437Z,1.20
2019-05-20T00:40:00.409Z,1.00
2019-05-20T00:41:00.401Z,1.00
2019-05-20T00:42:00.401Z,1.00
2019-05-20T00:43:00.405Z,1.30
2019-05-20T00:44:00.371Z,1.10
2019-05-20T00:45:00.362Z,1.00
2019-05-20T00:46:00.343Z,1.10
2019-05-20T00:47:00.347Z,1.00
2019-05-20T00:48:00.326Z,1.30
2019-05-20T00:49:00.318Z,1.00
2019-05-20T00:50:00.313Z,1.00
2019-05-20T00:51:00.310Z,1.20
2019-05-20T00:52:00.293Z,1.20
2019-05-20T00:53:00.299Z,1.10
2019-05-20T00:54:00.259Z,1.20
2019-05-20T00:55:00.267Z,1.30
2019-05-20T00:56:00.264Z,1.10
2019-05-20T00:57:00.249Z,1.20
2019-05-20T00:58:00.221Z,1.20
2019-05-20T00:59:00.223Z,1.40
2019-05-20T01:00:00.205Z,1.10
2019-05-20T01:01:00.190Z,1.20
2019-05-20T01:02:00.185Z,1.30
2019-05-20T01:03:00.164Z,1.20
2019-05-20T01:04:02.096Z,1.20
2019-05-20T01:05:00.153Z,1.20
2019-05-20T01:06:00.134Z,1.30
2019-05-20T01:07:00.166Z,1.20
2019-05-20T01:08:00.119Z,1.20
2019-05-20T01:09:00.100Z,1.20
2019-05-20T01:10:00.128Z,1.40
2019-05-20T01:11:00.079Z,1.10
2019-05-20T01:12:00.063Z,1.10
2019-05-20T01:13:00.093Z,1.40
2019-05-20T01:14:00.052Z,1.10
2019-05-20T01:15:00.034Z,1.20
2019-05-20T01:16:00.023Z,1.20
2019-05-20T01:17:00.018Z,1.10
2019-05-20T01:18:00.084Z,1.20
2019-05-20T01:19:00.008Z,1.10
2019-05-20T01:19:59.980Z,1.40
2019-05-20T01:20:59.977Z,1.10
2019-05-20T01:21:59.966Z,1.20
2019-05-20T01:22:59.968Z,1.20
2019-05-20T01:23:59.947Z,1.20
2019-05-20T01:24:59.928Z,1.30
2019-05-20T01:25:59.939Z,1.20
2019-05-20T01:26:59.920Z,1.10
2019-05-20T01:27:59.911Z,1.10
2019-05-20T01:28:59.893Z,1.20
2019-05-20T01:29:59.882Z,1.20
2019-05-20T01:30:59.867Z,1.30
2019-05-20T01:31:59.851Z,1.10
2019-05-20T01:33:12.762Z,1.20
2019-05-20T01:33:59.834Z,1.20
2019-05-20T01:34:59.848Z,1.20
2019-05-20T01:35:59.813Z,1.20
2019-05-20T01:36:59.795Z,1.30
2019-05-20T01:37:59.799Z,1.20
2019-05-20T01:38:59.796Z,1.10
2019-05-20T01:39:59.769Z,1.30
2019-05-20T01:40:59.759Z,1.10
2019-05-20T01:41:59.748Z,1.10
2019-05-20T01:42:59.765Z,1.10
2019-05-20T01:43:59.727Z,1.20
2019-05-20T01:44:59.720Z,1.20
2019-05-20T01:45:59.697Z,1.30
2019-05-20T01:46:59.704Z,1.10
2019-05-20T01:47:59.715Z,1.20
2019-05-20T01:48:59.667Z,1.30
2019-05-20T01:49:59.676Z,1.40
2019-05-20T01:50:59.659Z,1.20
2019-05-20T01:51:59.657Z,1.40
2019-05-20T01:52:59.638Z,1.40
2019-05-20T01:53:59.628Z,1.10
2019-05-20T01:54:59.601Z,1.20
2019-05-20T01:55:59.591Z,1.20
2019-05-20T01:56:59.581Z,1.20
2019-05-20T01:57:59.589Z,1.50
2019-05-20T01:58:59.583Z,1.30
2019-05-20T01:59:59.561Z,1.10
2019-05-20T02:00:59.539Z,1.20
2019-05-20T02:01:59.531Z,1.20
2019-05-20T02:02:59.525Z,1.30
2019-05-20T02:03:59.517Z,1.50
2019-05-20T02:04:59.504Z,1.30
2019-05-20T02:05:59.480Z,1.40
2019-05-20T02:06:59.481Z,1.40
2019-05-20T02:07:59.477Z,1.30
2019-05-20T02:08:59.477Z,1.40
2019-05-20T02:09:59.445Z,1.30
2019-05-20T02:10:59.430Z,1.40
2019-05-20T02:11:59.434Z,1.20
2019-05-20T02:12:59.416Z,1.50
2019-05-20T02:13:59.410Z,1.50
2019-05-20T02:14:59.394Z,1.70
2019-05-20T02:15:59.374Z,1.40
2019-05-20T02:17:02.514Z,1.40
2019-05-20T02:17:59.365Z,1.50
2019-05-20T02:18:59.345Z,1.40
2019-05-20T02:19:59.349Z,1.30
2019-05-20T02:20:59.326Z,1.60
2019-05-20T02:21:59.312Z,1.30
2019-05-20T02:22:59.309Z,1.30
2019-05-20T02:23:59.305Z,1.60
2019-05-20T02:24:59.280Z,1.50
2019-05-20T02:25:59.274Z,1.30
2019-05-20T02:26:59.258Z,1.40
2019-05-20T02:27:59.257Z,1.40
2019-05-20T02:28:59.239Z,1.30
2019-05-20T02:29:59.233Z,1.30
2019-05-20T02:30:59.218Z,1.40
2019-05-20T02:31:59.213Z,1.20
2019-05-20T02:32:59.191Z,1.50
2019-05-20T02:33:59.193Z,1.50
2019-05-20T02:34:59.170Z,1.50
2019-05-20T02:35:59.162Z,1.40
2019-05-20T02:36:59.156Z,1.50
2019-05-20T02:37:59.150Z,1.30
2019-05-20T02:38:59.138Z,1.50
2019-05-20T02:39:59.132Z,1.10
2019-05-20T02:40:59.111Z,1.50
2019-05-20T02:41:59.101Z,1.40
2019-05-20T02:42:59.102Z,1.40
2019-05-20T02:43:59.081Z,1.30
2019-05-20T02:44:59.076Z,1.60
2019-05-20T02:45:59.050Z,1.30
2019-05-20T02:46:59.052Z,1.30
2019-05-20T02:47:59.028Z,1.30
2019-05-20T02:48:59.044Z,1.60
2019-05-20T02:49:59.031Z,1.50
2019-05-20T02:50:59.005Z,1.30
2019-05-20T02:51:58.992Z,1.50
2019-05-20T02:52:58.982Z,1.30
2019-05-20T02:53:58.980Z,1.30
2019-05-20T02:54:58.962Z,1.40
2019-05-20T02:55:58.952Z,1.70
2019-05-20T02:56:58.936Z,1.50
2019-05-20T02:57:58.928Z,1.30
2019-05-20T02:58:58.937Z,1.60
2019-05-20T02:59:58.901Z,1.60
2019-05-20T03:00:58.900Z,1.70
2019-05-20T03:01:58.913Z,1.60
2019-05-20T03:02:58.878Z,1.50
2019-05-20T03:04:10.849Z,1.50
2019-05-20T03:04:58.865Z,1.60
2019-05-20T03:05:58.835Z,1.70
2019-05-20T03:06:58.849Z,1.60
2019-05-20T03:07:58.827Z,1.60
2019-05-20T03:08:58.840Z,1.70
2019-05-20T03:09:58.966Z,1.80
2019-05-20T03:10:58.782Z,1.60
2019-05-20T03:11:58.772Z,1.60
2019-05-20T03:12:58.794Z,1.80
2019-05-20T03:13:58.760Z,1.90
2019-05-20T03:14:58.750Z,1.70
2019-05-20T03:15:58.741Z,1.50
2019-05-20T03:16:58.717Z,1.80
2019-05-20T03:17:58.717Z,1.80
2019-05-20T03:18:58.710Z,1.90
2019-05-20T03:19:58.693Z,2.00
2019-05-20T03:20:58.675Z,1.60
2019-05-20T03:21:58.762Z,1.90
2019-05-20T03:22:58.664Z,1.60
2019-05-20T03:23:58.664Z,1.80
2019-05-20T03:24:58.634Z,1.70
2019-05-20T03:25:58.628Z,1.50
2019-05-20T03:26:58.630Z,1.70
2019-05-20T03:27:58.603Z,1.70
2019-05-20T03:28:58.625Z,1.90
2019-05-20T03:29:58.577Z,1.70
2019-05-20T03:30:58.568Z,1.90
2019-05-20T03:31:58.556Z,1.80
2019-05-20T03:32:58.548Z,1.60
2019-05-20T03:33:58.581Z,2.00
2019-05-20T03:35:00.837Z,1.80
2019-05-20T03:35:58.544Z,2.00
2019-05-20T03:36:58.514Z,2.00
2019-05-20T03:37:58.501Z,1.80
2019-05-20T03:38:58.507Z,1.50
2019-05-20T03:39:58.480Z,1.70
2019-05-20T03:40:58.464Z,1.80
2019-05-20T03:41:58.458Z,1.90
2019-05-20T03:42:58.437Z,1.80
2019-05-20T03:43:58.450Z,2.20
2019-05-20T03:44:58.435Z,2.00
2019-05-20T03:45:58.435Z,2.10
2019-05-20T03:46:58.394Z,1.90
2019-05-20T03:47:58.387Z,1.70
2019-05-20T03:48:58.394Z,1.90
2019-05-20T03:49:58.366Z,2.00
2019-05-20T03:50:58.372Z,2.10
2019-05-20T03:51:58.362Z,2.00
2019-05-20T03:52:58.346Z,2.00
2019-05-20T03:53:58.335Z,2.10
2019-05-20T03:54:58.316Z,1.90
2019-05-20T03:55:58.304Z,2.00
2019-05-20T03:56:58.306Z,2.00
2019-05-20T03:57:58.289Z,1.90
2019-05-20T03:58:58.272Z,2.00
2019-05-20T03:59:58.273Z,2.00
2019-05-20T04:00:58.250Z,2.10
2019-05-20T04:01:58.238Z,2.50
2019-05-20T04:02:58.249Z,2.10
2019-05-20T04:03:58.226Z,2.00
2019-05-20T04:05:02.473Z,2.00
2019-05-20T04:05:58.200Z,2.40
2019-05-20T04:06:58.194Z,2.30
2019-05-20T04:07:58.166Z,2.40
2019-05-20T04:08:58.167Z,2.30
2019-05-20T04:09:58.172Z,2.00
2019-05-20T04:10:58.138Z,2.30
2019-05-20T04:11:58.138Z,2.10
2019-05-20T04:12:58.133Z,2.20
2019-05-20T04:13:58.107Z,2.20
2019-05-20T04:14:58.142Z,2.20
2019-05-20T04:15:58.104Z,2.30
2019-05-20T04:16:58.081Z,2.00
2019-05-20T04:17:58.085Z,2.50
2019-05-20T04:18:58.053Z,2.30
2019-05-20T04:19:58.060Z,2.40
2019-05-20T04:20:58.046Z,2.10
2019-05-20T04:21:58.034Z,2.30
2019-05-20T04:22:58.047Z,2.10
2019-05-20T04:24:00.991Z,2.30
2019-05-20T04:24:58.003Z,2.50
2019-05-20T04:25:57.975Z,2.20
2019-05-20T04:26:57.967Z,2.30
2019-05-20T04:27:57.971Z,2.20
2019-05-20T04:28:57.967Z,2.30
2019-05-20T04:29:58.182Z,2.40
2019-05-20T04:30:57.943Z,2.30
2019-05-20T04:31:57.918Z,2.40
2019-05-20T04:32:57.903Z,2.30
2019-05-20T04:33:57.913Z,2.40
2019-05-20T04:34:57.925Z,2.20
2019-05-20T04:35:57.897Z,2.30
2019-05-20T04:36:57.872Z,2.30
2019-05-20T04:37:57.851Z,2.10
2019-05-20T04:38:57.869Z,2.20
2019-05-20T04:39:57.848Z,2.50
2019-05-20T04:40:57.840Z,2.30
2019-05-20T04:41:57.820Z,2.10
2019-05-20T04:42:57.817Z,2.20
2019-05-20T04:43:57.779Z,2.40
2019-05-20T04:44:57.800Z,2.30
2019-05-20T04:45:57.762Z,2.40
2019-05-20T04:46:58.147Z,2.40
2019-05-20T04:47:57.739Z,2.40
2019-05-20T04:48:57.745Z,2.40
2019-05-20T04:49:57.751Z,2.50
2019-05-20T04:50:57.714Z,2.20
2019-05-20T04:51:57.713Z,2.40
2019-05-20T04:52:57.736Z,2.30
2019-05-20T04:53:57.677Z,2.80
2019-05-20T04:54:57.689Z,2.50
2019-05-20T04:55:57.664Z,2.40
2019-05-20T04:56:57.645Z,2.40
2019-05-20T04:57:57.634Z,2.80
2019-05-20T04:58:57.621Z,2.40
2019-05-20T04:59:57.641Z,2.40
2019-05-20T05:00:57.641Z,2.30
2019-05-20T05:01:57.584Z,2.30
2019-05-20T05:02:57.595Z,2.30
2019-05-20T05:03:57.562Z,2.60
2019-05-20T05:04:57.606Z,2.50
2019-05-20T05:05:57.582Z,2.50
2019-05-20T05:06:57.535Z,2.40
2019-05-20T05:07:57.534Z,2.40
2019-05-20T05:08:57.531Z,2.60
2019-05-20T05:09:57.517Z,2.60
2019-05-20T05:10:57.500Z,2.70
2019-05-20T05:11:57.495Z,2.30
2019-05-20T05:12:57.468Z,2.80
2019-05-20T05:13:57.455Z,2.70
2019-05-20T05:14:57.476Z,2.90
2019-05-20T05:15:57.437Z,2.40
2019-05-20T05:16:57.448Z,2.80
2019-05-20T05:17:57.445Z,2.80
2019-05-20T05:18:57.420Z,2.70
2019-05-20T05:19:57.404Z,2.70
2019-05-20T05:20:57.388Z,2.80
2019-05-20T05:21:57.389Z,6.50
2019-05-20T05:22:57.369Z,6.40
2019-05-20T05:23:59.531Z,8.50
2019-05-20T05:24:57.387Z,8.80
2019-05-20T05:25:57.339Z,8.80
2019-05-20T05:26:57.317Z,8.80
2019-05-20T05:27:57.317Z,9.10
2019-05-20T05:28:57.302Z,10.20
2019-05-20T05:29:57.304Z,10.40
2019-05-20T05:30:57.290Z,9.20
2019-05-20T05:31:57.266Z,8.70
2019-05-20T05:32:57.258Z,9.40
2019-05-20T05:33:57.247Z,9.00
2019-05-20T05:34:57.239Z,9.90
2019-05-20T05:35:57.227Z,9.40
2019-05-20T05:36:57.239Z,10.20
2019-05-20T05:37:57.217Z,10.30
2019-05-20T05:38:57.213Z,10.70
2019-05-20T05:39:57.250Z,10.90
2019-05-20T05:40:57.186Z,10.10
2019-05-20T05:41:57.169Z,10.60
2019-05-20T05:42:57.150Z,10.80
2019-05-20T05:43:57.155Z,12.60
2019-05-20T05:44:57.139Z,11.80
2019-05-20T05:45:57.135Z,10.30
2019-05-20T05:46:57.129Z,13.10
2019-05-20T05:47:57.098Z,13.20
2019-05-20T05:48:57.086Z,12.80
2019-05-20T05:49:57.068Z,12.90
2019-05-20T05:50:57.098Z,14.90
2019-05-20T05:51:57.061Z,13.40
2019-05-20T05:52:57.061Z,13.00
2019-05-20T05:53:57.031Z,13.70
2019-05-20T05:54:57.320Z,13.70
2019-05-20T05:55:57.029Z,13.40
2019-05-20T05:56:57.005Z,14.90
2019-05-20T05:57:57.053Z,13.10
2019-05-20T05:58:56.995Z,13.20
2019-05-20T05:59:56.968Z,13.10
2019-05-20T06:00:56.981Z,13.30
2019-05-20T06:01:56.944Z,12.50
2019-05-20T06:02:56.936Z,12.30
2019-05-20T06:03:56.968Z,14.10
2019-05-20T06:04:56.916Z,13.30
2019-05-20T06:06:11.470Z,13.20
2019-05-20T06:06:56.963Z,15.30
2019-05-20T06:07:56.888Z,14.80
2019-05-20T06:08:56.887Z,13.50
2019-05-20T06:09:59.914Z,13.80
2019-05-20T06:10:56.868Z,13.60
2019-05-20T06:11:56.850Z,11.90
2019-05-20T06:12:56.864Z,12.90
2019-05-20T06:13:56.829Z,13.30
2019-05-20T06:14:56.857Z,13.50
2019-05-20T06:15:56.870Z,13.90
2019-05-20T06:16:57.052Z,12.30
2019-05-20T06:17:56.845Z,11.90
2019-05-20T06:18:57.818Z,13.60
2019-05-20T06:19:56.838Z,14.00
2019-05-20T06:20:56.782Z,13.90
2019-05-20T06:21:56.842Z,13.40
2019-05-20T06:22:56.807Z,15.00
2019-05-20T06:23:56.920Z,14.80
2019-05-20T06:24:56.785Z,13.50
2019-05-20T06:25:56.745Z,12.60
2019-05-20T06:26:56.780Z,12.70
2019-05-20T06:27:56.772Z,13.00
2019-05-20T06:28:57.799Z,13.80
2019-05-20T06:29:56.775Z,13.70
2019-05-20T06:30:56.772Z,13.70
2019-05-20T06:31:56.664Z,14.00
2019-05-20T06:32:56.706Z,14.20
2019-05-20T06:33:56.681Z,13.70
2019-05-20T06:34:56.650Z,13.80
2019-05-20T06:35:56.659Z,13.90
2019-05-20T06:36:56.663Z,14.70
2019-05-20T06:37:56.588Z,14.10
2019-05-20T06:38:56.844Z,14.20
2019-05-20T06:39:56.598Z,13.70
2019-05-20T06:40:56.613Z,14.20
2019-05-20T06:41:56.600Z,13.50
2019-05-20T06:42:56.602Z,14.80
2019-05-20T06:43:56.627Z,14.50
2019-05-20T06:44:57.370Z,16.30
2019-05-20T06:46:00.605Z,15.40
2019-05-20T06:46:56.490Z,15.60
2019-05-20T06:47:56.450Z,16.10
2019-05-20T06:48:56.460Z,17.70
2019-05-20T06:49:56.445Z,16.80
2019-05-20T06:50:56.506Z,15.70
2019-05-20T06:51:56.649Z,15.70
2019-05-20T06:52:56.402Z,16.00
2019-05-20T06:53:56.421Z,14.90
2019-05-20T06:54:56.426Z,14.50
2019-05-20T06:55:56.392Z,16.80
2019-05-20T06:56:56.400Z,16.70
2019-05-20T06:57:56.499Z,15.60
2019-05-20T06:58:56.450Z,16.40
2019-05-20T06:59:56.444Z,14.70
2019-05-20T07:00:56.419Z,15.00
2019-05-20T07:01:56.422Z,14.90
2019-05-20T07:02:56.877Z,15.00
2019-05-20T07:03:56.294Z,15.80
2019-05-20T07:04:56.316Z,14.60
2019-05-20T07:05:56.334Z,15.90
2019-05-20T07:06:56.275Z,15.80
2019-05-20T07:07:56.728Z,13.30
2019-05-20T07:08:56.239Z,14.90
2019-05-20T07:09:56.221Z,12.90
2019-05-20T07:10:56.292Z,15.50
2019-05-20T07:11:56.241Z,15.90
2019-05-20T07:12:56.198Z,14.60
2019-05-20T07:13:56.303Z,15.10
2019-05-20T07:14:56.274Z,15.70
2019-05-20T07:15:56.191Z,16.00
2019-05-20T07:16:56.289Z,14.80
2019-05-20T07:17:56.179Z,14.80
2019-05-20T07:18:56.150Z,15.10
2019-05-20T07:19:56.131Z,14.10
2019-05-20T07:20:56.192Z,12.10
2019-05-20T07:21:56.147Z,14.60
2019-05-20T07:22:56.940Z,14.40
2019-05-20T07:23:56.123Z,15.50
2019-05-20T07:24:56.094Z,15.10
2019-05-20T07:25:56.142Z,15.10
2019-05-20T07:26:56.120Z,14.00
2019-05-20T07:27:56.121Z,11.60
2019-05-20T07:28:56.019Z,11.30
2019-05-20T07:29:56.148Z,11.80
2019-05-20T07:30:56.039Z,13.10
2019-05-20T07:31:56.078Z,14.80
2019-05-20T07:32:56.080Z,14.40
2019-05-20T07:33:55.970Z,14.60
2019-05-20T07:34:55.939Z,14.50
2019-05-20T07:35:55.966Z,13.70
2019-05-20T07:37:03.236Z,14.30
2019-05-20T07:37:55.923Z,15.40
2019-05-20T07:38:55.936Z,13.40
2019-05-20T07:39:55.967Z,11.20
2019-05-20T07:40:55.899Z,10.60
2019-05-20T07:41:58.986Z,11.10
2019-05-20T07:42:55.890Z,9.40
2019-05-20T07:43:55.844Z,10.30
2019-05-20T07:44:55.868Z,10.70
2019-05-20T07:45:55.844Z,11.10
2019-05-20T07:46:55.826Z,10.40
2019-05-20T07:47:55.802Z,10.40
2019-05-20T07:48:55.808Z,9.80
2019-05-20T07:49:56.828Z,9.90
2019-05-20T07:50:55.811Z,10.00
2019-05-20T07:51:55.761Z,10.60
2019-05-20T07:52:55.842Z,10.00
2019-05-20T07:53:55.807Z,10.10
2019-05-20T07:54:55.788Z,10.00
2019-05-20T07:55:55.851Z,9.10
2019-05-20T07:56:56.789Z,9.60
2019-05-20T07:57:55.784Z,9.70
2019-05-20T07:58:55.776Z,9.40
2019-05-20T07:59:55.773Z,9.40
2019-05-20T08:00:55.775Z,9.80
2019-05-20T08:01:55.741Z,8.90
2019-05-20T08:02:55.778Z,9.50
2019-05-20T08:03:55.745Z,9.50
2019-05-20T08:04:55.715Z,9.20
2019-05-20T08:05:59.778Z,8.70
2019-05-20T08:06:55.727Z,8.80
2019-05-20T08:07:55.677Z,8.60
2019-05-20T08:08:55.675Z,8.50
2019-05-20T08:09:55.660Z,8.50
2019-05-20T08:10:56.638Z,8.30
2019-05-20T08:11:56.646Z,8.90
2019-05-20T08:12:56.654Z,8.50
2019-05-20T08:13:55.618Z,8.90
2019-05-20T08:14:55.605Z,9.00
2019-05-20T08:15:55.591Z,7.80
2019-05-20T08:16:55.614Z,8.70
2019-05-20T08:17:55.619Z,8.40
2019-05-20T08:18:55.943Z,8.80
2019-05-20T08:19:56.619Z,8.50
2019-05-20T08:20:55.537Z,8.40
2019-05-20T08:21:55.537Z,8.40
2019-05-20T08:22:55.523Z,8.60
2019-05-20T08:23:55.504Z,8.80
2019-05-20T08:24:55.485Z,8.80
2019-05-20T08:25:55.499Z,9.40
2019-05-20T08:26:55.452Z,8.40
2019-05-20T08:27:55.464Z,8.60
2019-05-20T08:28:55.584Z,8.90
2019-05-20T08:29:55.445Z,8.60
2019-05-20T08:30:58.457Z,8.20
2019-05-20T08:31:55.421Z,8.70
2019-05-20T08:32:55.388Z,8.20
2019-05-20T08:33:55.894Z,8.60
2019-05-20T08:34:55.360Z,8.60
2019-05-20T08:35:55.355Z,8.60
2019-05-20T08:36:55.344Z,8.90
2019-05-20T08:37:55.372Z,8.80
2019-05-20T08:38:55.334Z,8.50
2019-05-20T08:39:55.266Z,8.50
2019-05-20T08:40:55.261Z,8.20
2019-05-20T08:41:55.318Z,8.50
2019-05-20T08:42:55.277Z,8.80
2019-05-20T08:43:55.242Z,8.80
2019-05-20T08:44:55.284Z,8.00
2019-05-20T08:45:55.262Z,8.00
2019-05-20T08:46:55.250Z,8.10
2019-05-20T08:47:55.242Z,8.30
2019-05-20T08:48:55.201Z,8.00
2019-05-20T08:49:55.289Z,7.80
2019-05-20T08:50:55.195Z,8.30
2019-05-20T08:51:55.242Z,8.30
2019-05-20T08:52:55.183Z,7.60
2019-05-20T08:53:55.162Z,8.20
2019-05-20T08:54:55.161Z,7.80
2019-05-20T08:55:55.173Z,8.00
2019-05-20T08:56:55.071Z,7.90
2019-05-20T08:57:55.191Z,8.00
2019-05-20T08:58:55.307Z,7.20
2019-05-20T08:59:55.108Z,8.10
2019-05-20T09:00:55.131Z,8.50
2019-05-20T09:01:55.079Z,8.50
2019-05-20T09:02:55.105Z,8.40
2019-05-20T09:03:54.982Z,8.40
2019-05-20T09:04:54.994Z,8.50
2019-05-20T09:05:55.132Z,7.30
2019-05-20T09:06:54.966Z,7.60
2019-05-20T09:08:03.161Z,7.70
2019-05-20T09:08:54.987Z,8.20
2019-05-20T09:09:55.100Z,8.60
2019-05-20T09:10:55.006Z,8.20
2019-05-20T09:11:55.015Z,8.40
2019-05-20T09:12:54.875Z,8.80
2019-05-20T09:13:55.053Z,7.90
2019-05-20T09:14:54.944Z,8.40
2019-05-20T09:15:54.955Z,8.00
2019-05-20T09:16:54.838Z,8.80
2019-05-20T09:17:55.212Z,7.90
2019-05-20T09:18:54.824Z,8.80
2019-05-20T09:19:54.804Z,9.00
2019-05-20T09:20:54.824Z,8.40
2019-05-20T09:21:54.830Z,8.60
2019-05-20T09:22:54.778Z,8.70
2019-05-20T09:23:54.825Z,8.00
2019-05-20T09:24:54.795Z,7.80
2019-05-20T09:25:54.740Z,8.40
2019-05-20T09:26:54.712Z,8.40
2019-05-20T09:27:54.737Z,8.20
2019-05-20T09:28:54.758Z,8.50
2019-05-20T09:29:55.700Z,8.60
2019-05-20T09:30:54.698Z,8.40
2019-05-20T09:31:54.679Z,8.60
2019-05-20T09:32:54.664Z,8.20
2019-05-20T09:33:54.679Z,7.90
2019-05-20T09:34:54.665Z,8.80
2019-05-20T09:35:55.655Z,8.60
2019-05-20T09:36:54.614Z,9.10
2019-05-20T09:37:54.701Z,8.30
2019-05-20T09:38:54.701Z,8.40
2019-05-20T09:39:54.578Z,9.00
2019-05-20T09:40:54.578Z,8.80
2019-05-20T09:41:54.566Z,8.50
2019-05-20T09:42:54.594Z,8.60
2019-05-20T09:43:54.545Z,8.40
2019-05-20T09:44:54.525Z,8.90
2019-05-20T09:46:06.188Z,8.40
2019-05-20T09:46:54.517Z,8.70
2019-05-20T09:47:54.509Z,8.60
2019-05-20T09:48:54.559Z,8.30
2019-05-20T09:49:54.595Z,8.30
2019-05-20T09:50:54.536Z,8.20
2019-05-20T09:51:55.567Z,8.30
2019-05-20T09:52:54.539Z,8.90
2019-05-20T09:53:54.434Z,8.50
2019-05-20T09:54:54.436Z,8.70
2019-05-20T09:55:54.508Z,8.20
2019-05-20T09:56:54.499Z,8.00
2019-05-20T09:57:54.466Z,8.30
2019-05-20T09:58:54.440Z,8.90
2019-05-20T09:59:57.455Z,7.90
2019-05-20T10:02:54.405Z,8.20
2019-05-20T10:03:54.387Z,8.10
2019-05-20T10:04:54.304Z,8.40
2019-05-20T10:05:54.342Z,8.10
2019-05-20T10:06:54.285Z,8.10
2019-05-20T10:07:54.312Z,9.10
2019-05-20T10:08:54.383Z,7.70
2019-05-20T10:09:54.330Z,8.10
2019-05-20T10:10:54.268Z,7.60
2019-05-20T10:11:54.280Z,8.00
2019-05-20T10:12:54.316Z,7.90
2019-05-20T10:13:54.301Z,8.00
2019-05-20T10:14:54.267Z,8.00
2019-05-20T10:15:54.224Z,8.30
2019-05-20T10:16:54.195Z,8.10
2019-05-20T10:17:54.166Z,8.40
2019-05-20T10:18:55.469Z,8.10
2019-05-20T10:19:54.136Z,7.70
2019-05-20T10:20:54.160Z,8.50
2019-05-20T10:21:54.198Z,7.80
2019-05-20T10:22:54.248Z,8.20
2019-05-20T10:23:55.193Z,7.50
2019-05-20T10:24:54.094Z,8.20
2019-05-20T10:25:55.132Z,8.30
2019-05-20T10:26:54.090Z,7.70
2019-05-20T10:27:57.531Z,7.90
2019-05-20T10:28:54.040Z,8.30
2019-05-20T10:29:54.040Z,8.60
2019-05-20T10:30:54.037Z,7.90
2019-05-20T10:31:54.046Z,8.70
2019-05-20T10:32:54.017Z,9.40
2019-05-20T10:33:53.986Z,9.40
2019-05-20T10:34:53.999Z,8.70
2019-05-20T10:35:53.964Z,7.90
2019-05-20T10:36:54.023Z,7.90
2019-05-20T10:37:53.958Z,7.50
2019-05-20T10:38:58.940Z,8.10
2019-05-20T10:39:53.990Z,7.70
2019-05-20T10:40:53.907Z,7.90
2019-05-20T10:41:53.897Z,7.90
2019-05-20T10:42:53.939Z,8.30
2019-05-20T10:43:53.902Z,7.10
2019-05-20T10:44:53.882Z,7.50
2019-05-20T10:45:53.865Z,7.90
2019-05-20T10:46:54.016Z,7.50
2019-05-20T10:47:53.854Z,7.70
2019-05-20T10:48:53.834Z,7.80
2019-05-20T10:49:53.881Z,7.90
2019-05-20T10:50:53.870Z,7.70
2019-05-20T10:51:53.798Z,7.40
2019-05-20T10:52:53.805Z,7.20
2019-05-20T10:53:53.823Z,7.20
2019-05-20T10:54:53.775Z,7.20
2019-05-20T10:55:53.806Z,7.60
2019-05-20T10:56:53.743Z,7.30
2019-05-20T10:57:53.739Z,7.40
2019-05-20T10:58:53.743Z,6.90
2019-05-20T10:59:53.716Z,7.30
2019-05-20T11:01:02.163Z,6.50
2019-05-20T11:01:53.690Z,6.60
2019-05-20T11:02:53.697Z,7.10
2019-05-20T11:03:53.674Z,6.50
2019-05-20T11:04:53.771Z,7.30
2019-05-20T11:05:53.648Z,7.30
2019-05-20T11:06:53.640Z,7.40
2019-05-20T11:07:53.915Z,7.20
2019-05-20T11:08:53.628Z,7.10
2019-05-20T11:09:53.637Z,7.10
2019-05-20T11:10:53.611Z,7.10
2019-05-20T11:11:53.587Z,6.70
2019-05-20T11:12:53.600Z,6.70
2019-05-20T11:13:53.549Z,6.40
2019-05-20T11:14:53.553Z,6.60
2019-05-20T11:15:53.634Z,6.40
2019-05-20T11:16:53.540Z,6.50
2019-05-20T11:17:53.517Z,6.70
2019-05-20T11:18:53.581Z,6.80
2019-05-20T11:19:53.528Z,6.40
2019-05-20T11:20:53.494Z,6.90
2019-05-20T11:21:53.514Z,6.80
2019-05-20T11:22:53.473Z,6.60
2019-05-20T11:23:53.473Z,6.60
2019-05-20T11:24:56.471Z,6.70
2019-05-20T11:25:53.507Z,6.60
2019-05-20T11:26:53.429Z,6.70
2019-05-20T11:27:53.407Z,6.60
2019-05-20T11:28:53.395Z,6.80
2019-05-20T11:29:54.369Z,6.90
2019-05-20T11:30:53.398Z,6.70
2019-05-20T11:31:53.365Z,7.60
2019-05-20T11:32:53.350Z,6.70
2019-05-20T11:33:53.336Z,7.50
2019-05-20T11:34:53.342Z,7.50
2019-05-20T11:35:53.334Z,7.20
2019-05-20T11:36:53.305Z,6.60
2019-05-20T11:37:53.333Z,6.80
2019-05-20T11:38:53.393Z,7.20
2019-05-20T11:39:56.360Z,7.10
2019-05-20T11:40:53.337Z,7.10
2019-05-20T11:41:54.736Z,6.80
2019-05-20T11:42:53.324Z,6.90
2019-05-20T11:43:53.278Z,6.80
2019-05-20T11:44:54.311Z,7.00
2019-05-20T11:45:53.310Z,7.20
2019-05-20T11:46:53.297Z,7.50
2019-05-20T11:48:14.453Z,7.70
2019-05-20T11:48:53.249Z,7.50
2019-05-20T11:49:56.302Z,7.40
2019-05-20T11:50:53.270Z,7.50
2019-05-20T11:51:53.228Z,6.90
2019-05-20T11:52:53.233Z,7.00
2019-05-20T11:53:53.209Z,7.40
2019-05-20T11:54:56.222Z,7.20
2019-05-20T11:55:53.149Z,7.40
2019-05-20T11:56:53.203Z,7.50
2019-05-20T11:57:53.140Z,7.50
2019-05-20T11:58:54.179Z,7.40
2019-05-20T11:59:53.115Z,7.60
2019-05-20T12:00:53.094Z,7.80
2019-05-20T12:01:53.045Z,7.30
2019-05-20T12:02:53.065Z,7.70
2019-05-20T12:03:53.007Z,7.10
2019-05-20T12:04:53.429Z,7.80
2019-05-20T12:05:53.045Z,7.70
2019-05-20T12:06:52.995Z,7.40
2019-05-20T12:07:52.989Z,7.10
2019-05-20T12:08:52.976Z,7.50
2019-05-20T12:09:56.061Z,8.20
2019-05-20T12:10:53.009Z,7.10
2019-05-20T12:11:53.015Z,7.00
2019-05-20T12:12:52.933Z,7.70
2019-05-20T12:13:52.923Z,6.90
2019-05-20T12:14:52.889Z,7.20
2019-05-20T12:15:53.096Z,7.60
2019-05-20T12:16:52.921Z,7.50
2019-05-20T12:17:52.861Z,7.80
2019-05-20T12:18:52.852Z,7.30
2019-05-20T12:19:52.839Z,7.00
2019-05-20T12:20:52.874Z,7.20
2019-05-20T12:21:52.847Z,6.90
2019-05-20T12:22:52.844Z,7.00
2019-05-20T12:23:52.807Z,7.00
2019-05-20T12:24:52.783Z,6.60
2019-05-20T12:25:52.798Z,7.40
2019-05-20T12:26:52.798Z,6.90
2019-05-20T12:27:52.753Z,6.90
2019-05-20T12:28:52.747Z,7.20
2019-05-20T12:29:52.734Z,6.90
2019-05-20T12:30:52.733Z,6.90
2019-05-20T12:31:52.732Z,7.00
2019-05-20T12:33:16.707Z,6.40
2019-05-20T12:33:52.691Z,7.60
2019-05-20T12:34:52.704Z,7.40
2019-05-20T12:35:52.672Z,7.20
2019-05-20T12:36:52.658Z,6.50
2019-05-20T12:37:52.640Z,7.20
2019-05-20T12:38:52.636Z,7.40
2019-05-20T12:40:06.435Z,7.00
2019-05-20T12:40:52.630Z,7.20
2019-05-20T12:41:52.640Z,7.10
2019-05-20T12:42:52.589Z,6.40
2019-05-20T12:44:09.995Z,6.70
2019-05-20T12:44:52.564Z,7.30
2019-05-20T12:45:52.569Z,7.10
2019-05-20T12:46:52.562Z,7.70
2019-05-20T12:47:52.553Z,7.00
2019-05-20T12:48:52.660Z,7.60
2019-05-20T12:49:52.521Z,7.70
2019-05-20T12:50:52.573Z,7.20
2019-05-20T12:51:52.557Z,7.70
2019-05-20T12:52:52.484Z,7.20
2019-05-20T12:53:52.524Z,6.70
2019-05-20T12:55:07.063Z,7.60
2019-05-20T12:55:52.466Z,6.90
2019-05-20T12:56:52.483Z,7.20
2019-05-20T12:57:52.443Z,7.20
2019-05-20T12:58:52.504Z,7.00
2019-05-20T12:59:52.404Z,6.80
2019-05-20T13:00:52.414Z,6.90
2019-05-20T13:01:52.391Z,7.20
2019-05-20T13:02:52.481Z,7.00
2019-05-20T13:03:52.355Z,7.10
2019-05-20T13:04:52.417Z,6.60
2019-05-20T13:05:52.398Z,7.10
2019-05-20T13:06:52.341Z,7.30
2019-05-20T13:07:52.317Z,7.30
2019-05-20T13:08:52.316Z,7.00
2019-05-20T13:09:52.537Z,6.90
2019-05-20T13:10:52.331Z,7.00
2019-05-20T13:11:52.324Z,7.20
2019-05-20T13:12:52.324Z,7.20
2019-05-20T13:13:52.272Z,7.20
2019-05-20T13:14:52.258Z,7.00